Airfield :
LOGIN :

Register | Disclaimer

   EN    FR    IT 

 










Legend :    VFR   Marginal VFR   IFR   Intensive IFR   Very Intensive IFR
Visi :
Ceiling :
>= 8 km
>= 3000ft
5 to 8 km
1000 to 3000 ft
1500m to 5 km
500 to 1000 ft
800 to 1500m
200 to 500 ft
< 800m
< 200 ft
Symbols :   Thunderstorms  Fog  Heavy snow  Heavy precipitations  Wind > 20 kt
SIGMETs :     Misc.  Thunderstorms  Icing  Turbulence  Mountain Waves  Volcanic Ashes






- Airport Elevation : 138 ft
- IATA code : BIO


LEBB - Bilbao

CURRENT METAR :
  • 191230Z VRB03KT CAVOK 20/03 Q1016 NOSIG

EXPIRED METARs :
  • 191200Z VRB02KT CAVOK 19/02 Q1017 NOSIG
  • 191130Z VRB02KT CAVOK 18/02 Q1017 NOSIG
  • 191100Z VRB02KT CAVOK 17/02 Q1017 NOSIG
  • 191030Z 13004KT 080V170 CAVOK 16/04 Q1018 NOSIG
  • 191000Z 14005KT 080V190 CAVOK 15/05 Q1018 NOSIG

TAF TAF LEBB
Valid from the 19 at 12:00 until the 20 at 12:00 UTC


191100Z 1912/2012 VRB05KT 9999 SCT040 TX20/1913Z TN06/2006Z
PROB30
TEMPO 1912/1919 32010KT
PROB40
TEMPO 1918/1924 RA
PROB30
TEMPO 2000/2008 3000 BR
PROB40
TEMPO 2006/2012 RA



MET'MAP, your aeronautical weather chart ! - Copyright ORBIFLY December 2007 - Disclaimer

ORBIFLY MET'MAP TEAM :

Programming & Development : Alexandra Zaïnal
Concept & original design : Baudouin d'Aumeries
Assistance for programming : Marc-Olivier Méhu
Technical & hardware support : Manuel Goepfert

Contact : metmap@orbifly.com




SOURCES & CREDITS :

   NOAA